Time;durP1;ratioP1;P1;durP2;ratioP2;P2;SDS_P1;SDS_P2;PMS_P1;PMS_P2;Temp;Humidity;BMP_temperature;BMP_pressure;BME280_temperature;BME280_humidity;BME280_pressure;Samples;Min_cycle;Max_cycle;Signal;HPM_P1;HPM_P2
2024/01/08 00:03:09;;;;;;;92.30;86.55;;;-2.20;99.90;;;;;;12307041;28;20043;-35
2024/01/08 00:09:12;;;;;;;91.05;85.45;;;-2.10;99.90;;;;;;12332015;28;20114;-36
2024/01/08 00:15:13;;;;;;;90.35;84.93;;;-2.00;99.90;;;;;;12312738;28;20092;-35
2024/01/08 00:21:15;;;;;;;94.32;88.50;;;-2.10;99.90;;;;;;12354799;28;20153;-36
2024/01/08 00:27:17;;;;;;;95.07;89.20;;;-2.00;99.90;;;;;;12313291;28;20067;-36
2024/01/08 00:33:19;;;;;;;100.25;94.15;;;-2.10;99.90;;;;;;12300701;28;20054;-35
2024/01/08 00:39:21;;;;;;;98.97;93.07;;;-2.10;99.90;;;;;;12315663;28;20423;-36
2024/01/08 00:45:24;;;;;;;99.70;93.63;;;-1.90;99.90;;;;;;12298516;28;20173;-35
2024/01/08 00:51:26;;;;;;;101.75;95.45;;;-2.00;99.90;;;;;;12291451;28;20403;-36
2024/01/08 00:57:28;;;;;;;102.68;96.28;;;-1.80;99.90;;;;;;12331224;28;20054;-35
2024/01/08 01:03:30;;;;;;;102.57;95.88;;;-2.00;99.90;;;;;;12309924;28;20059;-36
2024/01/08 01:09:32;;;;;;;105.43;98.53;;;-2.10;99.90;;;;;;12320853;28;20062;-36
2024/01/08 01:15:34;;;;;;;108.28;101.28;;;-2.00;99.90;;;;;;12327886;28;20050;-36
2024/01/08 01:21:36;;;;;;;104.00;97.47;;;-2.10;99.90;;;;;;12326557;28;20493;-35
2024/01/08 01:27:38;;;;;;;108.03;100.93;;;-2.00;99.90;;;;;;12325792;28;20078;-36
2024/01/08 01:33:40;;;;;;;105.70;98.72;;;-2.10;99.90;;;;;;12308428;28;20201;-36
2024/01/08 01:39:42;;;;;;;101.70;95.30;;;-2.10;99.90;;;;;;12322110;28;20051;-35
2024/01/08 01:45:44;;;;;;;108.65;101.50;;;-1.90;99.90;;;;;;12318847;28;20055;-36
2024/01/08 01:51:48;;;;;;;105.03;98.53;;;-2.00;99.90;;;;;;12316989;28;20090;-35
2024/01/08 01:57:50;;;;;;;106.00;99.20;;;-2.00;99.90;;;;;;12443146;28;20047;-36
2024/01/08 02:03:52;;;;;;;102.45;95.95;;;-1.80;99.90;;;;;;12317441;28;20043;-37
2024/01/08 02:09:55;;;;;;;106.25;99.35;;;-1.90;99.90;;;;;;12361982;28;20063;-35
2024/01/08 02:15:58;;;;;;;103.78;97.38;;;-2.00;99.90;;;;;;12309802;28;20097;-36
2024/01/08 02:22:00;;;;;;;102.90;96.35;;;-1.90;99.90;;;;;;12325120;28;20545;-35
2024/01/08 02:28:02;;;;;;;104.18;97.78;;;-1.90;99.90;;;;;;12333519;28;20420;-36
2024/01/08 02:34:04;;;;;;;107.13;100.20;;;-1.90;99.90;;;;;;12335060;28;20423;-36
2024/01/08 02:40:06;;;;;;;109.50;102.55;;;-2.00;99.90;;;;;;12313704;28;20525;-36
2024/01/08 02:46:08;;;;;;;105.88;99.38;;;-1.90;99.90;;;;;;12311072;28;20091;-36
2024/01/08 02:52:10;;;;;;;97.55;91.53;;;-1.90;99.90;;;;;;12323522;28;20097;-36
2024/01/08 02:58:12;;;;;;;89.28;83.93;;;-2.00;99.90;;;;;;12375586;28;20047;-36
2024/01/08 03:04:14;;;;;;;83.13;78.03;;;-2.00;99.90;;;;;;12341035;28;20515;-35
2024/01/08 03:10:16;;;;;;;74.85;70.10;;;-2.00;99.90;;;;;;12309150;28;20047;-35
2024/01/08 03:16:18;;;;;;;74.63;70.13;;;-2.00;99.90;;;;;;12318180;28;20594;-37
2024/01/08 03:22:20;;;;;;;79.93;75.18;;;-2.00;99.90;;;;;;12318138;28;20058;-35
2024/01/08 03:28:22;;;;;;;80.68;75.68;;;-1.90;99.90;;;;;;12361339;28;20414;-35
2024/01/08 03:34:24;;;;;;;84.50;79.35;;;-1.90;99.90;;;;;;12402518;28;20050;-35
2024/01/08 03:40:26;;;;;;;89.10;83.45;;;-2.00;99.90;;;;;;12396263;28;20094;-35
2024/01/08 03:46:28;;;;;;;85.57;80.35;;;-2.00;99.90;;;;;;12368351;28;20095;-35
2024/01/08 03:52:29;;;;;;;83.18;77.97;;;-2.00;99.90;;;;;;12328109;28;20079;-36
2024/01/08 03:58:31;;;;;;;94.82;88.63;;;-1.90;99.90;;;;;;12317353;28;20116;-35
2024/01/08 04:04:33;;;;;;;101.05;94.38;;;-1.90;99.90;;;;;;12363874;28;20054;-35
2024/01/08 04:10:35;;;;;;;102.18;95.80;;;-2.00;99.90;;;;;;12316897;28;20061;-35
2024/01/08 04:16:37;;;;;;;100.03;93.75;;;-2.10;99.90;;;;;;12318850;28;20086;-36
2024/01/08 04:22:44;;;;;;;101.70;95.20;;;-2.00;99.90;;;;;;12285258;28;20039;-35
2024/01/08 04:28:46;;;;;;;96.38;90.32;;;-1.90;99.90;;;;;;12311496;28;20059;-36
2024/01/08 04:34:48;;;;;;;91.70;85.80;;;-2.10;99.90;;;;;;12339203;28;20431;-36
2024/01/08 04:40:50;;;;;;;87.60;82.03;;;-2.10;99.90;;;;;;12338180;28;20067;-36
2024/01/08 04:46:52;;;;;;;83.40;78.00;;;-1.90;99.90;;;;;;12320663;28;20503;-36
2024/01/08 04:52:54;;;;;;;92.15;86.28;;;-1.90;99.90;;;;;;12357953;28;20051;-36
2024/01/08 04:58:56;;;;;;;89.32;83.50;;;-2.10;99.90;;;;;;12318775;28;20058;-34
2024/01/08 05:04:58;;;;;;;87.93;82.07;;;-2.10;99.90;;;;;;12331777;28;20055;-35
2024/01/08 05:11:00;;;;;;;89.38;83.28;;;-2.00;99.90;;;;;;12319909;28;20051;-35
2024/01/08 05:17:03;;;;;;;86.68;80.90;;;-2.10;99.90;;;;;;12331115;28;20076;-35
2024/01/08 05:23:05;;;;;;;86.50;80.55;;;-2.00;99.90;;;;;;12317733;28;20086;-35
2024/01/08 05:29:07;;;;;;;85.55;79.40;;;-2.10;99.90;;;;;;12310144;28;20051;-35
2024/01/08 05:35:08;;;;;;;82.22;76.50;;;-2.10;99.90;;;;;;12350074;28;20058;-35
2024/01/08 05:41:10;;;;;;;78.90;73.65;;;-2.10;99.90;;;;;;12340579;28;20051;-35
2024/01/08 05:47:12;;;;;;;75.60;70.55;;;-2.00;99.90;;;;;;12316687;28;20406;-36
2024/01/08 05:53:14;;;;;;;77.97;72.57;;;-2.00;99.90;;;;;;12325782;28;20055;-36
2024/01/08 05:59:16;;;;;;;77.65;72.45;;;-2.00;99.90;;;;;;12317266;28;20051;-35
2024/01/08 06:05:18;;;;;;;69.60;65.10;;;-2.10;99.90;;;;;;12325772;28;20054;-35
2024/01/08 06:11:21;;;;;;;69.22;64.88;;;-2.00;99.90;;;;;;12311426;28;21104;-35
2024/01/08 06:17:22;;;;;;;68.10;63.78;;;-2.10;99.90;;;;;;12306411;28;20058;-36
2024/01/08 06:23:25;;;;;;;69.55;65.07;;;-2.10;99.90;;;;;;12304181;28;20403;-35
2024/01/08 06:29:27;;;;;;;65.45;61.40;;;-2.10;99.90;;;;;;12309415;28;20600;-36
2024/01/08 06:35:29;;;;;;;58.78;55.30;;;-2.10;99.90;;;;;;12304498;28;20047;-36
2024/01/08 06:41:31;;;;;;;49.05;46.40;;;-2.10;99.90;;;;;;12348114;28;20086;-35
2024/01/08 06:47:34;;;;;;;51.13;48.28;;;-2.30;99.90;;;;;;12342087;28;20060;-35
2024/01/08 06:53:38;;;;;;;42.17;39.70;;;-2.50;99.90;;;;;;12324289;28;20133;-35
2024/01/08 06:59:40;;;;;;;45.05;42.25;;;-2.50;99.90;;;;;;12311679;28;20066;-36
2024/01/08 07:05:46;;;;;;;46.83;44.33;;;-2.60;99.90;;;;;;12368122;23;20066;-80
2024/01/08 07:11:49;;;;;;;34.35;32.22;;;-2.80;99.90;;;;;;12381136;28;20054;-80
2024/01/08 07:17:51;;;;;;;31.92;30.23;;;-2.80;99.90;;;;;;12375135;28;20381;-80
2024/01/08 07:23:58;;;;;;;35.17;33.28;;;-2.90;99.90;;;;;;12407821;28;20560;-79
2024/01/08 07:30:00;;;;;;;29.08;27.48;;;-3.00;99.90;;;;;;12368384;28;20054;-80
2024/01/08 07:36:05;;;;;;;34.80;32.88;;;-3.20;99.90;;;;;;12413046;28;20478;-79
2024/01/08 07:42:08;;;;;;;28.45;26.75;;;-3.20;99.90;;;;;;12407765;28;20043;-79
2024/01/08 07:48:10;;;;;;;17.10;16.02;;;-3.30;99.90;;;;;;12367701;28;20448;-79
2024/01/08 07:54:12;;;;;;;18.30;17.20;;;-3.40;99.90;;;;;;12379114;28;20049;-78
2024/01/08 08:00:15;;;;;;;14.10;13.20;;;-3.30;99.90;;;;;;12344831;28;20046;-80
2024/01/08 08:06:17;;;;;;;15.25;14.05;;;-3.50;99.90;;;;;;12318189;28;20063;-80
2024/01/08 08:12:19;;;;;;;14.05;13.25;;;-3.50;99.90;;;;;;12315316;28;20062;-80
2024/01/08 08:18:21;;;;;;;12.65;11.85;;;-3.60;99.90;;;;;;12322432;28;20047;-80
2024/01/08 08:24:26;;;;;;;14.73;13.68;;;-3.60;99.90;;;;;;12314428;28;20046;-80
2024/01/08 08:30:27;;;;;;;11.43;10.52;;;-3.60;1.00;;;;;;12315978;28;20051;-81
2024/01/08 08:36:29;;;;;;;11.38;10.57;;;-3.60;99.90;;;;;;12336681;28;20083;-81
2024/01/08 08:42:31;;;;;;;8.40;7.68;;;-3.60;1.00;;;;;;12316077;28;20499;-79
2024/01/08 08:48:33;;;;;;;7.88;7.25;;;-3.60;99.90;;;;;;12351694;28;20054;-80
2024/01/08 08:54:35;;;;;;;7.00;6.40;;;-3.60;99.90;;;;;;12309504;28;20043;-80
2024/01/08 09:00:38;;;;;;;11.07;6.97;;;-3.70;1.00;;;;;;12318504;28;20059;-80
2024/01/08 09:06:40;;;;;;;8.32;7.70;;;-3.70;1.00;;;;;;12308530;28;20063;-81
2024/01/08 09:12:42;;;;;;;7.38;6.85;;;-3.70;99.90;;;;;;12374129;28;20051;-80
2024/01/08 09:18:47;;;;;;;7.93;7.32;;;-3.70;1.00;;;;;;12307965;28;20127;-80
2024/01/08 09:24:49;;;;;;;8.68;7.97;;;-3.70;1.00;;;;;;12305033;28;20146;-80
2024/01/08 09:30:54;;;;;;;9.27;8.57;;;-3.70;1.00;;;;;;12333038;28;20054;-79
2024/01/08 09:36:56;;;;;;;12.77;11.98;;;-3.60;1.00;;;;;;12378009;28;20508;-80
2024/01/08 09:43:09;;;;;;;18.27;17.08;;;-3.50;1.00;;;;;;12337651;28;20092;-80
2024/01/08 09:49:12;;;;;;;15.77;14.68;;;-3.40;26.50;;;;;;12325723;28;20425;-79
2024/01/08 09:55:15;;;;;;;12.90;12.10;;;-3.50;1.00;;;;;;12343690;28;20059;-81
2024/01/08 10:01:17;;;;;;;9.70;9.00;;;-3.50;1.00;;;;;;12331223;28;20058;-80
2024/01/08 10:07:19;;;;;;;9.52;8.80;;;-3.60;1.00;;;;;;12327032;28;20368;-80
2024/01/08 10:13:22;;;;;;;8.18;7.47;;;-3.50;1.00;;;;;;12311557;28;20055;-82
2024/01/08 10:19:24;;;;;;;8.15;7.53;;;-3.40;1.00;;;;;;12334416;28;20059;-80
2024/01/08 10:25:29;;;;;;;9.00;7.60;;;-3.30;1.00;;;;;;12322790;28;21059;-81
2024/01/08 10:31:32;;;;;;;12.43;11.63;;;-3.30;1.00;;;;;;12331771;28;20065;-82
2024/01/08 10:37:36;;;;;;;10.27;9.15;;;-3.20;1.00;;;;;;12349219;28;20173;-81
2024/01/08 10:43:38;;;;;;;9.13;8.45;;;-3.10;1.00;;;;;;12310176;28;20050;-82
2024/01/08 10:49:43;;;;;;;8.98;8.27;;;-2.90;1.00;;;;;;12329970;28;20066;-81
2024/01/08 10:55:45;;;;;;;8.63;7.85;;;-2.90;1.00;;;;;;12305284;28;20401;-81
2024/01/08 11:01:49;;;;;;;12.07;11.23;;;-2.80;99.90;;;;;;12328339;28;20062;-81
2024/01/08 11:07:51;;;;;;;9.90;9.18;;;-2.70;1.40;;;;;;12320624;28;20085;-81
2024/01/08 11:13:54;;;;;;;9.77;8.82;;;-2.90;66.70;;;;;;12331329;28;20061;-80
2024/01/08 11:19:58;;;;;;;11.00;10.30;;;-2.90;99.90;;;;;;12300382;28;20083;-81
2024/01/08 11:26:02;;;;;;;9.30;8.50;;;-2.80;1.00;;;;;;12313726;28;20193;-80
2024/01/08 11:32:13;;;;;;;9.02;8.32;;;-2.80;71.50;;;;;;12320714;28;20058;-80
2024/01/08 11:38:26;;;;;;;8.20;7.43;;;-2.60;73.90;;;;;;12347412;28;20126;-81
2024/01/08 11:44:29;;;;;;;7.03;5.03;;;-2.70;82.40;;;;;;12314046;28;20047;-81
2024/01/08 11:50:31;;;;;;;7.05;4.85;;;-2.80;60.20;;;;;;12321772;28;20059;-81
2024/01/08 11:56:34;;;;;;;5.05;4.55;;;-2.80;51.30;;;;;;12294454;28;20047;-81
2024/01/08 12:02:38;;;;;;;6.00;4.77;;;-2.70;38.10;;;;;;12319911;28;20051;-81
2024/01/08 12:08:40;;;;;;;3.60;3.17;;;-2.70;45.80;;;;;;12313376;28;20051;-82
2024/01/08 12:14:43;;;;;;;5.57;3.63;;;-2.80;1.00;;;;;;12315045;28;20395;-81
2024/01/08 12:20:45;;;;;;;5.25;4.75;;;-2.60;99.90;;;;;;12328944;28;20055;-82
2024/01/08 12:26:47;;;;;;;6.85;3.55;;;-2.50;1.00;;;;;;12308547;28;20074;-83
2024/01/08 12:32:49;;;;;;;5.03;3.42;;;-2.70;1.00;;;;;;12311212;28;20054;-83
2024/01/08 12:38:51;;;;;;;4.85;3.85;;;-2.60;99.90;;;;;;12392945;28;20050;-81
2024/01/08 12:44:55;;;;;;;5.30;3.63;;;-2.70;1.00;;;;;;12321373;28;20484;-81
2024/01/08 12:50:56;;;;;;;4.57;3.70;;;-2.80;1.00;;;;;;12381684;28;20063;-83
2024/01/08 12:56:58;;;;;;;4.80;4.30;;;-2.70;99.90;;;;;;12307449;28;20068;-82
2024/01/08 13:03:00;;;;;;;6.72;3.80;;;-2.70;19.40;;;;;;12354372;28;20047;-82
2024/01/08 13:09:05;;;;;;;3.53;2.67;;;-2.60;1.00;;;;;;12343111;28;20055;-82
2024/01/08 13:15:07;;;;;;;4.77;2.70;;;-2.60;1.00;;;;;;12347532;28;20518;-81
2024/01/08 13:21:09;;;;;;;4.40;3.42;;;-2.60;99.90;;;;;;12327469;28;20053;-81
2024/01/08 13:27:12;;;;;;;3.30;2.67;;;-2.70;99.90;;;;;;12321152;28;20090;-81
2024/01/08 13:33:15;;;;;;;4.38;3.20;;;-2.70;1.00;;;;;;12323930;28;20492;-81
2024/01/08 13:39:17;;;;;;;4.00;2.80;;;-2.70;99.90;;;;;;12346110;28;20043;-81
2024/01/08 13:45:19;;;;;;;4.40;2.60;;;-2.70;1.00;;;;;;12329845;28;20059;-81
2024/01/08 13:51:21;;;;;;;4.15;2.45;;;-2.70;1.00;;;;;;12304331;28;20051;-82
2024/01/08 13:57:23;;;;;;;4.00;2.53;;;-2.70;1.00;;;;;;12327977;28;20051;-81
2024/01/08 14:03:27;;;;;;;3.33;2.40;;;-2.70;1.00;;;;;;12348694;28;20066;-81
2024/01/08 14:09:29;;;;;;;4.05;2.50;;;-2.70;99.90;;;;;;12308635;28;20086;-81
2024/01/08 14:15:31;;;;;;;7.63;3.00;;;-2.80;1.00;;;;;;12324300;28;20047;-82
2024/01/08 14:21:33;;;;;;;5.57;2.65;;;-2.80;99.90;;;;;;12329643;28;20046;-81
2024/01/08 14:27:36;;;;;;;5.15;3.70;;;-2.80;99.90;;;;;;12321365;28;20051;-81
2024/01/08 14:33:38;;;;;;;5.25;2.88;;;-2.70;99.90;;;;;;12321144;28;20054;-81
2024/01/08 14:39:40;;;;;;;5.20;2.78;;;-2.80;1.00;;;;;;12332588;28;20134;-80
2024/01/08 14:45:42;;;;;;;4.38;2.20;;;-2.90;1.00;;;;;;12316812;28;20051;-81
2024/01/08 14:51:44;;;;;;;4.97;2.40;;;-2.80;99.90;;;;;;12324184;28;20058;-81
2024/01/08 14:57:46;;;;;;;5.55;2.30;;;-2.80;1.00;;;;;;12319045;28;20747;-81
2024/01/08 15:03:49;;;;;;;4.32;2.15;;;-2.90;99.90;;;;;;12307715;28;20506;-80
2024/01/08 15:09:52;;;;;;;3.58;1.80;;;-2.90;1.00;;;;;;12313917;28;20400;-81
2024/01/08 15:15:54;;;;;;;4.88;2.00;;;-2.90;1.00;;;;;;12330768;28;20055;-79
2024/01/08 15:21:56;;;;;;;3.60;1.98;;;-3.00;1.00;;;;;;12334889;28;20043;-78
2024/01/08 15:27:58;;;;;;;3.15;1.85;;;-3.00;99.90;;;;;;12321033;28;20137;-80
2024/01/08 15:34:00;;;;;;;4.85;2.40;;;-3.10;99.90;;;;;;12319462;28;20046;-79
2024/01/08 15:40:03;;;;;;;3.55;1.75;;;-3.10;99.90;;;;;;12330469;28;20042;-79
2024/01/08 15:46:09;;;;;;;4.57;2.10;;;-3.10;1.00;;;;;;12311288;28;20065;-78
2024/01/08 15:52:11;;;;;;;3.50;1.88;;;-3.10;99.90;;;;;;12336667;28;20056;-77
2024/01/08 15:58:13;;;;;;;3.33;1.70;;;-3.20;99.90;;;;;;12319845;28;20047;-77
2024/01/08 16:04:16;;;;;;;3.95;1.73;;;-3.20;1.00;;;;;;12364423;28;20059;-77
2024/01/08 16:10:18;;;;;;;3.28;1.95;;;-3.20;1.00;;;;;;12304524;28;20054;-78
2024/01/08 16:16:22;;;;;;;4.45;1.75;;;-3.20;1.00;;;;;;12311620;28;20291;-82
2024/01/08 16:22:24;;;;;;;2.53;1.48;;;-3.20;12.10;;;;;;12326736;28;20054;-78
2024/01/08 16:28:26;;;;;;;3.55;2.00;;;-3.20;99.90;;;;;;12322013;28;20057;-78
2024/01/08 16:34:28;;;;;;;4.57;2.40;;;-3.30;99.90;;;;;;12331363;28;20082;-78
2024/01/08 16:40:49;;;;;;;3.70;1.80;;;-3.40;99.90;;;;;;12348962;28;20043;-80
2024/01/08 16:46:51;;;;;;;3.42;2.15;;;-3.30;1.00;;;;;;12319506;28;20061;-78
2024/01/08 16:52:54;;;;;;;3.97;2.05;;;-3.40;76.40;;;;;;12345364;28;20503;-78
2024/01/08 16:58:56;;;;;;;4.65;2.00;;;-3.30;1.00;;;;;;12339308;28;20510;-77
2024/01/08 17:04:58;;;;;;;4.45;2.20;;;-3.40;65.40;;;;;;12352756;28;20630;-78
2024/01/08 17:11:01;;;;;;;4.70;2.20;;;-3.50;99.90;;;;;;12315670;28;20415;-78
2024/01/08 17:17:03;;;;;;;5.38;2.40;;;-3.50;99.90;;;;;;12323355;28;20085;-78
2024/01/08 17:23:08;;;;;;;4.47;2.10;;;-3.50;1.00;;;;;;12330686;28;20047;-78
2024/01/08 17:29:10;;;;;;;3.92;2.20;;;-3.60;1.00;;;;;;12316422;28;20064;-78
2024/01/08 17:35:12;;;;;;;8.50;2.08;;;-3.50;99.90;;;;;;12329845;28;20047;-78
2024/01/08 17:41:14;;;;;;;6.00;2.72;;;-3.60;99.90;;;;;;12343987;28;20055;-78
2024/01/08 17:47:16;;;;;;;6.72;2.63;;;-3.70;1.00;;;;;;12315087;28;20471;-81
2024/01/08 17:53:19;;;;;;;4.55;2.80;;;-3.80;1.00;;;;;;12319546;28;20051;-78
2024/01/08 17:59:20;;;;;;;69.57;20.17;;;-3.90;1.00;;;;;;12328095;28;20054;-79
2024/01/08 18:05:22;;;;;;;17.83;7.53;;;-3.90;1.00;;;;;;12349469;28;20503;-84
2024/01/08 18:11:25;;;;;;;6.63;4.75;;;-3.90;1.00;;;;;;12313341;28;20058;-79
2024/01/08 18:17:27;;;;;;;17.88;6.18;;;-4.10;1.00;;;;;;12315162;28;20499;-79
2024/01/08 18:23:29;;;;;;;16.95;6.72;;;-4.20;1.00;;;;;;12317316;28;20388;-78
2024/01/08 18:29:31;;;;;;;20.25;8.20;;;-4.00;1.00;;;;;;12320750;28;20503;-78
2024/01/08 18:35:33;;;;;;;19.60;8.75;;;-3.90;1.00;;;;;;12335912;28;20054;-78
2024/01/08 18:41:35;;;;;;;24.30;8.50;;;-3.80;99.90;;;;;;12361089;28;20047;-78
2024/01/08 18:47:37;;;;;;;24.05;7.97;;;-3.80;99.90;;;;;;12332063;28;20081;-79
2024/01/08 18:53:39;;;;;;;23.35;6.57;;;-3.80;1.00;;;;;;12319290;28;20059;-77
2024/01/08 18:59:41;;;;;;;7.45;3.65;;;-3.90;1.00;;;;;;12320819;28;20520;-79
2024/01/08 19:05:44;;;;;;;6.45;3.92;;;-3.90;4.40;;;;;;12378852;28;20417;-79
2024/01/08 19:11:46;;;;;;;4.10;2.60;;;-4.00;1.00;;;;;;12318130;28;20047;-78
2024/01/08 19:17:48;;;;;;;4.55;2.40;;;-4.00;99.90;;;;;;12326306;28;20403;-79
2024/01/08 19:23:51;;;;;;;3.15;1.73;;;-4.10;99.90;;;;;;12322519;28;20059;-78
2024/01/08 19:29:53;;;;;;;3.33;1.75;;;-4.10;99.90;;;;;;12328397;28;20058;-78
2024/01/08 19:35:55;;;;;;;3.63;2.33;;;-4.10;99.90;;;;;;12321362;28;20049;-78
2024/01/08 19:41:58;;;;;;;4.35;2.33;;;-4.10;99.90;;;;;;12323565;28;20079;-78
2024/01/08 19:48:00;;;;;;;5.07;2.10;;;-4.10;99.90;;;;;;12319431;28;20053;-81
2024/01/08 19:54:02;;;;;;;6.50;2.42;;;-4.20;99.90;;;;;;12301393;28;20055;-78
2024/01/08 20:00:11;;;;;;;4.10;2.40;;;-4.20;99.90;;;;;;12328246;28;20051;-79
2024/01/08 20:06:13;;;;;;;4.38;2.42;;;-4.20;99.90;;;;;;12324664;28;20059;-78
2024/01/08 20:12:15;;;;;;;4.53;2.80;;;-4.30;99.90;;;;;;12306215;28;20099;-79
2024/01/08 20:18:17;;;;;;;4.93;2.95;;;-4.30;99.90;;;;;;12314002;28;20063;-81
2024/01/08 20:24:19;;;;;;;4.97;3.10;;;-4.40;99.90;;;;;;12316185;28;20051;-78
2024/01/08 20:30:21;;;;;;;5.20;3.10;;;-4.40;99.90;;;;;;12309665;28;20051;-78
2024/01/08 20:36:23;;;;;;;6.18;3.10;;;-4.50;99.90;;;;;;12362157;28;20053;-79
2024/01/08 20:42:27;;;;;;;5.78;3.60;;;-4.50;99.90;;;;;;12328737;28;20047;-78
2024/01/08 20:48:29;;;;;;;4.28;3.25;;;-4.60;99.90;;;;;;12322224;28;20055;-78
2024/01/08 20:54:31;;;;;;;4.53;3.03;;;-4.60;99.90;;;;;;12332742;28;20063;-79
2024/01/08 21:00:34;;;;;;;5.28;3.20;;;-4.60;99.90;;;;;;12331173;28;20058;-79
2024/01/08 21:06:36;;;;;;;5.05;3.40;;;-4.70;99.90;;;;;;12358512;28;20100;-78
2024/01/08 21:12:39;;;;;;;4.47;3.53;;;-4.70;99.90;;;;;;12334475;28;20051;-79
2024/01/08 21:18:41;;;;;;;4.43;3.50;;;-4.70;99.90;;;;;;12322011;28;20047;-80
2024/01/08 21:24:43;;;;;;;5.05;3.90;;;-4.70;99.90;;;;;;12312336;28;20052;-79
2024/01/08 21:30:45;;;;;;;4.30;3.85;;;-4.70;99.90;;;;;;12332055;28;20043;-80
2024/01/08 21:36:47;;;;;;;4.18;3.60;;;-4.70;99.90;;;;;;12352277;28;20045;-78
2024/01/08 21:42:49;;;;;;;4.38;3.50;;;-4.70;99.90;;;;;;12347075;28;20100;-78
2024/01/08 21:48:51;;;;;;;5.80;3.45;;;-4.70;99.90;;;;;;12338956;28;20059;-79
2024/01/08 21:54:53;;;;;;;3.95;3.15;;;-4.70;99.90;;;;;;12377995;28;20055;-79
2024/01/08 22:00:55;;;;;;;5.70;3.33;;;-4.80;99.90;;;;;;12378584;28;20051;-81
2024/01/08 22:06:57;;;;;;;5.28;3.45;;;-4.80;99.90;;;;;;12362619;28;20066;-78
2024/01/08 22:12:59;;;;;;;3.55;2.97;;;-4.80;99.90;;;;;;12356691;28;20068;-79
2024/01/08 22:19:02;;;;;;;6.35;3.33;;;-4.90;99.90;;;;;;12357003;28;20050;-83
2024/01/08 22:25:05;;;;;;;4.38;3.42;;;-4.90;99.90;;;;;;12380355;28;20057;-81
2024/01/08 22:31:07;;;;;;;6.03;3.70;;;-4.90;99.90;;;;;;12395710;28;20023;-81
2024/01/08 22:37:10;;;;;;;5.63;3.63;;;-4.90;99.90;;;;;;12410715;28;20024;-81
2024/01/08 22:43:12;;;;;;;5.75;3.78;;;-5.00;99.90;;;;;;12380344;28;20047;-81
2024/01/08 22:49:14;;;;;;;7.15;3.58;;;-5.00;99.90;;;;;;12346469;28;21185;-79
2024/01/08 22:55:16;;;;;;;3.97;3.63;;;-5.00;99.90;;;;;;12337508;28;20062;-79
2024/01/08 23:01:18;;;;;;;5.00;4.20;;;-5.10;99.90;;;;;;12354688;28;20046;-79
2024/01/08 23:07:20;;;;;;;5.45;4.55;;;-5.10;99.90;;;;;;12338039;28;20070;-81
2024/01/08 23:13:22;;;;;;;5.60;5.10;;;-5.20;99.90;;;;;;12324146;28;20046;-80
2024/01/08 23:19:24;;;;;;;6.88;5.40;;;-5.20;99.90;;;;;;12329660;28;20105;-79
2024/01/08 23:25:27;;;;;;;5.85;5.22;;;-5.30;99.90;;;;;;12345765;28;20506;-79
2024/01/08 23:31:29;;;;;;;6.32;5.72;;;-5.40;99.90;;;;;;12326886;28;20051;-78
2024/01/08 23:37:31;;;;;;;6.72;5.25;;;-5.40;99.90;;;;;;12340923;28;20051;-79
2024/01/08 23:43:33;;;;;;;5.60;5.07;;;-5.60;99.90;;;;;;12332436;28;20039;-79
2024/01/08 23:49:35;;;;;;;6.32;5.47;;;-5.50;99.90;;;;;;12326490;28;20435;-79
2024/01/08 23:55:37;;;;;;;7.72;5.85;;;-5.60;99.90;;;;;;12326938;28;20070;-79
